Time;durP1;ratioP1;P1;durP2;ratioP2;P2;SDS_P1;SDS_P2;PMS_P1;PMS_P2;Temp;Humidity;BMP_temperature;BMP_pressure;BME280_temperature;BME280_humidity;BME280_pressure;Samples;Min_cycle;Max_cycle;Signal;HPM_P1;HPM_P2
2023/03/19 00:01:08;;;;;;;22.98;4.47;;;11.60;99.90;;;;;;5053436;28;20033;-64
2023/03/19 00:03:34;;;;;;;23.92;4.10;;;11.60;99.90;;;;;;5053829;28;20053;-64
2023/03/19 00:06:01;;;;;;;27.02;4.40;;;11.60;99.90;;;;;;5053368;28;20029;-64
2023/03/19 00:08:27;;;;;;;22.42;4.25;;;11.60;99.90;;;;;;5053068;28;20382;-64
2023/03/19 00:10:53;;;;;;;17.58;3.90;;;11.50;99.90;;;;;;5053295;28;20021;-64
2023/03/19 00:13:19;;;;;;;25.77;4.68;;;11.60;99.90;;;;;;5053174;28;20083;-64
2023/03/19 00:15:46;;;;;;;21.85;4.45;;;11.60;99.90;;;;;;5053617;28;20029;-64
2023/03/19 00:18:12;;;;;;;26.42;4.18;;;11.60;99.90;;;;;;5053016;28;20033;-64
2023/03/19 00:20:38;;;;;;;20.98;4.03;;;11.60;99.90;;;;;;5052743;28;20393;-64
2023/03/19 00:23:04;;;;;;;19.63;4.07;;;11.50;99.90;;;;;;5052883;28;20048;-64
2023/03/19 00:25:30;;;;;;;21.05;3.88;;;11.60;99.90;;;;;;5052965;28;20112;-64
2023/03/19 00:27:56;;;;;;;18.75;3.80;;;11.60;99.90;;;;;;5053166;28;20013;-64
2023/03/19 00:30:22;;;;;;;19.08;4.22;;;11.60;99.90;;;;;;5053061;28;20095;-65
2023/03/19 00:32:48;;;;;;;18.80;4.03;;;11.50;99.90;;;;;;5053032;28;20485;-64
2023/03/19 00:35:14;;;;;;;22.55;3.70;;;11.60;99.90;;;;;;5052645;28;20055;-64
2023/03/19 00:37:40;;;;;;;17.15;3.75;;;11.70;99.90;;;;;;5052612;28;20021;-64
2023/03/19 00:40:07;;;;;;;22.45;4.20;;;11.60;99.90;;;;;;5053162;28;20040;-64
2023/03/19 00:42:33;;;;;;;19.50;3.70;;;11.50;99.90;;;;;;5052629;28;20028;-64
2023/03/19 00:44:59;;;;;;;21.38;4.20;;;11.60;99.90;;;;;;5052536;28;20013;-64
2023/03/19 00:47:26;;;;;;;19.63;3.65;;;11.50;99.90;;;;;;5052657;28;20059;-64
2023/03/19 00:49:52;;;;;;;19.20;3.75;;;11.50;99.90;;;;;;5052416;28;20481;-64
2023/03/19 00:52:17;;;;;;;19.67;3.90;;;11.50;99.90;;;;;;5052378;28;20082;-64
2023/03/19 00:54:43;;;;;;;23.20;4.28;;;11.60;99.90;;;;;;5052507;28;20049;-64
2023/03/19 00:57:09;;;;;;;20.60;4.35;;;11.50;99.90;;;;;;5052439;28;20031;-64
2023/03/19 00:59:35;;;;;;;18.63;3.60;;;11.50;99.90;;;;;;5052395;28;20044;-65
2023/03/19 01:02:00;;;;;;;21.77;3.70;;;11.40;99.90;;;;;;5052342;28;20429;-65
2023/03/19 01:04:26;;;;;;;17.25;3.22;;;11.30;99.90;;;;;;5051954;28;20052;-64
2023/03/19 01:06:52;;;;;;;15.90;3.80;;;11.20;99.90;;;;;;5052315;28;20393;-64
2023/03/19 01:09:18;;;;;;;16.92;3.88;;;11.40;99.90;;;;;;5051766;28;20021;-64
2023/03/19 01:11:43;;;;;;;21.67;4.07;;;11.30;99.90;;;;;;5051338;28;20099;-64
2023/03/19 01:14:09;;;;;;;16.08;3.60;;;11.20;99.90;;;;;;5051863;28;20045;-64
2023/03/19 01:16:35;;;;;;;21.02;4.05;;;11.00;99.90;;;;;;5052205;28;20063;-64
2023/03/19 01:19:01;;;;;;;17.70;3.33;;;11.00;99.90;;;;;;5051696;28;20078;-64
2023/03/19 01:21:29;;;;;;;20.48;4.22;;;11.10;99.90;;;;;;5051772;28;20041;-64
2023/03/19 01:23:56;;;;;;;17.02;3.97;;;11.10;99.90;;;;;;5052091;28;20071;-64
2023/03/19 01:26:23;;;;;;;15.13;3.67;;;10.90;99.90;;;;;;5052167;28;20385;-64
2023/03/19 01:28:48;;;;;;;15.73;3.92;;;10.70;99.90;;;;;;5052065;28;20022;-64
2023/03/19 01:31:14;;;;;;;15.68;3.28;;;10.80;99.90;;;;;;5052412;28;20025;-64
2023/03/19 01:33:41;;;;;;;17.35;4.10;;;10.70;99.90;;;;;;5051508;28;20036;-64
2023/03/19 01:36:08;;;;;;;22.08;3.30;;;10.60;99.90;;;;;;5051909;28;20550;-65
2023/03/19 01:38:33;;;;;;;16.67;3.35;;;10.40;99.90;;;;;;5052059;28;20378;-64
2023/03/19 01:40:59;;;;;;;15.15;3.38;;;10.40;99.90;;;;;;5051776;28;20040;-64
2023/03/19 01:43:30;;;;;;;19.65;4.13;;;10.20;99.90;;;;;;5051819;28;20025;-65
2023/03/19 01:46:11;;;;;;;14.68;3.15;;;10.30;99.90;;;;;;5051982;28;20040;-65
2023/03/19 01:48:41;;;;;;;13.05;3.38;;;10.40;99.90;;;;;;5051493;28;20032;-64
2023/03/19 01:51:10;;;;;;;14.38;3.42;;;10.60;99.90;;;;;;5051817;28;20025;-64
2023/03/19 01:53:38;;;;;;;13.65;2.95;;;10.60;99.90;;;;;;5052222;28;20539;-64
2023/03/19 01:56:10;;;;;;;15.57;3.55;;;10.70;99.90;;;;;;5051888;28;20032;-64
2023/03/19 01:58:38;;;;;;;16.48;3.55;;;10.70;99.90;;;;;;5050509;28;20367;-64
2023/03/19 02:01:04;;;;;;;16.73;3.40;;;10.60;99.90;;;;;;5051769;28;20444;-64
2023/03/19 02:03:32;;;;;;;21.00;3.35;;;10.50;99.90;;;;;;5051201;28;20029;-65
2023/03/19 02:05:58;;;;;;;17.52;3.90;;;10.30;99.90;;;;;;5051818;28;20017;-65
2023/03/19 02:08:25;;;;;;;26.08;3.55;;;10.00;99.90;;;;;;5051993;28;20056;-64
2023/03/19 02:10:52;;;;;;;23.17;3.90;;;9.80;99.90;;;;;;5051570;28;20025;-64
2023/03/19 02:13:18;;;;;;;22.13;4.43;;;9.70;99.90;;;;;;5051534;28;20037;-64
2023/03/19 02:15:44;;;;;;;19.40;3.35;;;9.70;99.90;;;;;;5051685;28;20055;-64
2023/03/19 02:18:10;;;;;;;18.00;3.50;;;9.50;99.90;;;;;;5051189;28;20033;-64
2023/03/19 02:20:47;;;;;;;14.07;3.50;;;9.40;99.90;;;;;;5054801;28;20116;-64
2023/03/19 02:23:52;;;;;;;14.13;3.38;;;9.50;99.90;;;;;;5055384;28;20033;-64
2023/03/19 02:26:21;;;;;;;16.95;4.03;;;9.80;99.90;;;;;;5055294;28;20055;-64
2023/03/19 02:28:48;;;;;;;17.95;4.00;;;9.90;99.90;;;;;;5055655;28;20018;-64
2023/03/19 02:31:15;;;;;;;19.15;3.42;;;9.90;99.90;;;;;;5054800;28;20371;-63
2023/03/19 02:33:41;;;;;;;16.70;3.30;;;10.10;99.90;;;;;;5053740;28;20115;-64
2023/03/19 02:36:16;;;;;;;16.02;3.40;;;10.00;99.90;;;;;;5055288;28;20117;-64
2023/03/19 02:38:43;;;;;;;13.57;3.03;;;10.10;99.90;;;;;;5055159;28;20021;-65
2023/03/19 02:41:10;;;;;;;16.85;3.47;;;10.20;99.90;;;;;;5055268;28;20033;-64
2023/03/19 02:43:38;;;;;;;20.13;3.53;;;10.20;99.90;;;;;;5054928;28;20024;-64
2023/03/19 02:46:08;;;;;;;15.57;3.33;;;10.20;99.90;;;;;;5054713;28;20400;-64
2023/03/19 02:48:35;;;;;;;13.30;3.00;;;10.10;99.90;;;;;;5054695;28;20024;-64
2023/03/19 02:51:01;;;;;;;18.02;3.38;;;10.20;99.90;;;;;;5055284;28;20021;-65
2023/03/19 02:53:26;;;;;;;18.50;3.80;;;10.20;99.90;;;;;;5054915;28;20389;-64
2023/03/19 02:55:52;;;;;;;13.38;2.90;;;10.20;99.90;;;;;;5054950;28;20025;-65
2023/03/19 02:58:18;;;;;;;14.60;3.25;;;10.30;99.90;;;;;;5054754;28;20033;-67
2023/03/19 03:00:45;;;;;;;20.27;3.42;;;10.30;99.90;;;;;;5054789;28;20557;-65
2023/03/19 03:03:10;;;;;;;14.20;3.40;;;10.20;99.90;;;;;;5054386;28;20021;-65
2023/03/19 03:05:36;;;;;;;19.02;3.38;;;10.20;99.90;;;;;;5054935;28;20078;-65
2023/03/19 03:08:03;;;;;;;17.42;3.05;;;10.10;99.90;;;;;;5054494;28;20029;-65
2023/03/19 03:10:29;;;;;;;20.48;3.58;;;9.90;99.90;;;;;;5054558;28;20032;-65
2023/03/19 03:12:55;;;;;;;14.00;3.20;;;10.10;99.90;;;;;;5054187;28;20051;-65
2023/03/19 03:15:21;;;;;;;17.35;2.95;;;9.90;99.90;;;;;;5054453;28;20386;-65
2023/03/19 03:17:47;;;;;;;9.65;2.50;;;10.00;99.90;;;;;;5054472;28;20059;-65
2023/03/19 03:20:16;;;;;;;13.82;3.25;;;9.90;99.90;;;;;;5054008;28;20033;-65
2023/03/19 03:22:43;;;;;;;10.77;3.33;;;9.90;99.90;;;;;;5054197;28;20456;-65
2023/03/19 03:25:10;;;;;;;10.38;3.08;;;9.80;99.90;;;;;;5054650;28;20024;-65
2023/03/19 03:27:36;;;;;;;12.25;2.60;;;9.80;99.90;;;;;;5054214;28;20032;-65
2023/03/19 03:30:05;;;;;;;17.40;3.35;;;10.00;99.90;;;;;;5053660;28;20056;-65
2023/03/19 03:32:31;;;;;;;12.88;3.15;;;10.10;99.90;;;;;;5053707;28;20043;-65
2023/03/19 03:34:56;;;;;;;15.20;3.00;;;10.10;99.90;;;;;;5053956;28;20132;-65
2023/03/19 03:37:22;;;;;;;14.63;3.22;;;10.30;99.90;;;;;;5054022;28;20025;-65
2023/03/19 03:39:48;;;;;;;14.23;3.58;;;10.20;99.90;;;;;;5054247;28;20437;-65
2023/03/19 03:42:14;;;;;;;17.55;3.30;;;10.30;99.90;;;;;;5054012;28;20032;-65
2023/03/19 03:44:40;;;;;;;19.55;3.65;;;10.40;99.90;;;;;;5053336;28;20032;-65
2023/03/19 03:47:06;;;;;;;16.65;3.75;;;10.40;99.90;;;;;;5053661;28;20083;-65
2023/03/19 03:49:31;;;;;;;17.27;3.50;;;10.40;99.90;;;;;;5054051;28;20025;-65
2023/03/19 03:51:57;;;;;;;12.52;3.35;;;10.50;99.90;;;;;;5053703;28;20024;-65
2023/03/19 03:54:23;;;;;;;13.70;3.30;;;10.40;99.90;;;;;;5053773;28;20032;-65
2023/03/19 03:56:49;;;;;;;21.35;3.72;;;10.50;99.90;;;;;;5053505;28;20083;-66
2023/03/19 03:59:15;;;;;;;17.48;3.35;;;10.40;99.90;;;;;;5053206;28;20450;-65
2023/03/19 04:01:41;;;;;;;14.20;3.13;;;10.60;99.90;;;;;;5053473;28;20032;-65
2023/03/19 04:04:06;;;;;;;14.88;3.05;;;10.40;99.90;;;;;;5053804;28;20448;-65
2023/03/19 04:06:33;;;;;;;11.20;2.80;;;10.30;99.90;;;;;;5053389;28;20021;-65
2023/03/19 04:09:00;;;;;;;10.02;3.00;;;10.30;99.90;;;;;;5053463;28;20024;-65
2023/03/19 04:11:26;;;;;;;12.90;3.00;;;10.20;99.90;;;;;;5053284;28;20470;-65
2023/03/19 04:13:54;;;;;;;14.93;3.65;;;10.10;99.90;;;;;;5052823;28;20048;-65
2023/03/19 04:16:20;;;;;;;17.35;3.58;;;10.00;99.90;;;;;;5053068;28;20393;-65
2023/03/19 04:18:45;;;;;;;18.85;3.45;;;10.10;99.90;;;;;;5053488;28;20029;-65
2023/03/19 04:21:11;;;;;;;13.27;3.20;;;10.00;99.90;;;;;;5052968;28;20040;-65
2023/03/19 04:23:37;;;;;;;11.60;3.22;;;10.00;99.90;;;;;;5053087;28;20128;-65
2023/03/19 04:26:06;;;;;;;11.15;2.92;;;10.20;99.90;;;;;;5053580;28;20108;-65
2023/03/19 04:28:32;;;;;;;8.55;2.85;;;10.20;99.90;;;;;;5052730;28;20092;-65
2023/03/19 04:31:04;;;;;;;6.60;2.45;;;10.30;99.90;;;;;;5052696;28;20143;-65
2023/03/19 04:33:30;;;;;;;16.88;3.10;;;10.40;99.90;;;;;;5052916;28;20028;-65
2023/03/19 04:35:56;;;;;;;10.88;2.85;;;10.40;99.90;;;;;;5053329;28;20020;-65
2023/03/19 04:38:25;;;;;;;12.25;2.78;;;10.40;99.90;;;;;;5052785;28;20433;-65
2023/03/19 04:40:51;;;;;;;12.45;3.17;;;10.50;99.90;;;;;;5052655;28;20098;-64
2023/03/19 04:43:17;;;;;;;13.23;3.08;;;10.40;99.90;;;;;;5051360;28;20021;-65
2023/03/19 04:45:43;;;;;;;11.15;2.95;;;10.50;99.90;;;;;;5053022;28;20389;-65
2023/03/19 04:48:09;;;;;;;13.75;3.20;;;10.50;99.90;;;;;;5052629;28;20021;-65
2023/03/19 04:50:36;;;;;;;10.27;2.80;;;10.50;99.90;;;;;;5052717;28;20025;-65
2023/03/19 04:53:01;;;;;;;13.02;2.83;;;10.40;99.90;;;;;;5052507;28;20021;-65
2023/03/19 04:55:27;;;;;;;8.27;2.63;;;10.60;99.90;;;;;;5052553;28;20055;-64
2023/03/19 04:57:53;;;;;;;9.10;2.67;;;10.40;99.90;;;;;;5052737;28;20025;-65
2023/03/19 05:00:20;;;;;;;13.40;3.05;;;10.40;99.90;;;;;;5051112;28;20041;-65
2023/03/19 05:02:46;;;;;;;9.02;2.25;;;10.50;99.90;;;;;;5052388;28;20104;-65
2023/03/19 05:05:12;;;;;;;9.52;2.50;;;10.40;99.90;;;;;;5051195;28;20037;-65
2023/03/19 05:07:39;;;;;;;10.75;2.78;;;10.30;99.90;;;;;;5052699;28;20024;-65
2023/03/19 05:10:05;;;;;;;9.95;2.50;;;10.20;99.90;;;;;;5052357;28;20031;-65
2023/03/19 05:12:31;;;;;;;7.65;2.28;;;10.10;99.90;;;;;;5051738;28;20036;-65
2023/03/19 05:14:57;;;;;;;10.00;2.55;;;9.90;99.90;;;;;;5052131;28;20039;-65
2023/03/19 05:17:24;;;;;;;12.70;2.72;;;10.00;99.90;;;;;;5052648;28;20025;-65
2023/03/19 05:19:50;;;;;;;12.18;2.65;;;10.00;99.90;;;;;;5051959;28;20071;-65
2023/03/19 05:22:16;;;;;;;12.98;3.03;;;10.20;99.90;;;;;;5052129;28;20017;-65
2023/03/19 05:24:41;;;;;;;13.25;3.20;;;10.10;99.90;;;;;;5052125;28;20033;-65
2023/03/19 05:27:07;;;;;;;11.85;2.90;;;9.90;99.90;;;;;;5051849;28;20025;-65
2023/03/19 05:29:33;;;;;;;10.77;3.50;;;9.90;99.90;;;;;;5051956;28;20028;-65
2023/03/19 05:32:01;;;;;;;18.48;3.65;;;9.90;99.90;;;;;;5051792;28;20296;-65
2023/03/19 05:34:28;;;;;;;19.35;9.95;;;10.10;99.90;;;;;;5052476;28;20398;-65
2023/03/19 05:36:54;;;;;;;27.23;14.20;;;10.00;99.90;;;;;;5051882;28;20029;-65
2023/03/19 05:39:19;;;;;;;15.00;8.75;;;10.00;99.90;;;;;;5052055;28;20017;-65
2023/03/19 05:41:45;;;;;;;19.42;10.90;;;9.90;99.90;;;;;;5051630;28;20029;-65
2023/03/19 05:44:11;;;;;;;18.30;10.60;;;10.10;99.90;;;;;;5051747;28;20032;-65
2023/03/19 05:46:37;;;;;;;16.63;7.85;;;10.00;99.90;;;;;;5051862;28;20367;-65
2023/03/19 05:49:03;;;;;;;15.73;5.93;;;10.00;99.90;;;;;;5051808;28;20086;-65
2023/03/19 05:51:29;;;;;;;9.38;4.00;;;10.00;99.90;;;;;;5051861;28;20029;-65
2023/03/19 05:53:55;;;;;;;12.73;3.47;;;10.10;99.90;;;;;;5052702;28;20027;-65
2023/03/19 05:56:21;;;;;;;14.18;3.58;;;10.10;99.90;;;;;;5055842;28;20100;-65
2023/03/19 05:58:46;;;;;;;11.98;3.50;;;10.10;99.90;;;;;;5055848;28;20021;-65
2023/03/19 06:01:12;;;;;;;11.13;2.72;;;10.10;99.90;;;;;;5055849;28;20036;-66
2023/03/19 06:03:38;;;;;;;11.63;2.67;;;10.20;99.90;;;;;;5055761;28;20021;-65
2023/03/19 06:06:04;;;;;;;11.35;3.00;;;10.30;99.90;;;;;;5055785;28;20061;-66
2023/03/19 06:08:30;;;;;;;8.93;2.72;;;10.10;99.90;;;;;;5055759;28;20028;-65
2023/03/19 06:10:55;;;;;;;11.10;3.08;;;10.00;99.90;;;;;;5055410;28;20017;-66
2023/03/19 06:13:21;;;;;;;8.98;2.75;;;9.90;99.90;;;;;;5055347;28;20048;-65
2023/03/19 06:15:51;;;;;;;14.25;3.10;;;9.80;99.90;;;;;;5055620;28;20025;-66
2023/03/19 06:18:17;;;;;;;12.07;3.30;;;9.70;99.90;;;;;;5055668;28;20032;-66
2023/03/19 06:20:44;;;;;;;9.55;3.28;;;9.60;99.90;;;;;;5055514;28;20041;-66
2023/03/19 06:23:10;;;;;;;10.70;3.60;;;9.60;99.90;;;;;;5055020;28;20397;-64
2023/03/19 06:25:36;;;;;;;10.88;3.55;;;9.70;99.90;;;;;;5055326;28;20099;-65
2023/03/19 06:28:02;;;;;;;13.57;4.00;;;9.70;99.90;;;;;;5055742;28;20048;-65
2023/03/19 06:30:28;;;;;;;9.32;3.30;;;9.90;99.90;;;;;;5055389;28;20024;-65
2023/03/19 06:32:53;;;;;;;12.15;3.30;;;10.10;99.90;;;;;;5055113;28;20029;-66
2023/03/19 06:35:19;;;;;;;14.23;3.38;;;10.00;99.90;;;;;;5055346;28;20127;-66
2023/03/19 06:37:45;;;;;;;11.00;3.42;;;10.10;99.90;;;;;;5054813;28;20035;-65
2023/03/19 06:40:11;;;;;;;11.27;3.17;;;10.20;99.90;;;;;;5054913;28;20024;-65
2023/03/19 06:42:37;;;;;;;12.57;3.17;;;10.30;99.90;;;;;;5055513;28;20083;-66
2023/03/19 06:45:03;;;;;;;12.98;2.90;;;10.30;99.90;;;;;;5054570;28;20021;-65
2023/03/19 06:47:28;;;;;;;7.60;2.80;;;10.40;99.90;;;;;;5055348;28;20064;-66
2023/03/19 06:49:55;;;;;;;8.77;2.90;;;10.40;99.90;;;;;;5054934;28;20056;-66
2023/03/19 06:52:21;;;;;;;12.45;3.17;;;10.40;99.90;;;;;;5054443;28;20045;-65
2023/03/19 06:54:47;;;;;;;12.32;3.22;;;10.40;99.90;;;;;;5054813;28;20066;-65
2023/03/19 06:57:12;;;;;;;9.63;2.95;;;10.50;99.90;;;;;;5054794;28;20033;-65
2023/03/19 06:59:38;;;;;;;7.40;2.60;;;10.60;99.90;;;;;;5054782;28;20032;-65
2023/03/19 07:02:04;;;;;;;12.95;3.40;;;10.70;99.90;;;;;;5054750;28;20060;-66
2023/03/19 07:04:30;;;;;;;7.70;2.70;;;11.40;99.90;;;;;;5055138;28;20104;-65
2023/03/19 07:06:55;;;;;;;5.70;2.00;;;15.00;99.90;;;;;;5051844;28;20033;-65
2023/03/19 07:09:22;;;;;;;5.88;1.90;;;18.40;99.90;;;;;;5054445;28;20063;-65
2023/03/19 07:11:48;;;;;;;10.07;2.10;;;22.90;99.90;;;;;;5054528;28;20024;-65
2023/03/19 07:14:13;;;;;;;5.40;1.88;;;20.90;99.90;;;;;;5054912;28;20032;-66
2023/03/19 07:16:39;;;;;;;7.47;1.75;;;18.50;99.90;;;;;;5054355;28;20509;-66
2023/03/19 07:19:05;;;;;;;6.18;1.95;;;17.20;99.90;;;;;;5054466;28;20029;-65
2023/03/19 07:21:30;;;;;;;6.35;1.83;;;15.50;99.90;;;;;;5053944;28;20520;-65
2023/03/19 07:23:56;;;;;;;5.93;2.33;;;14.70;99.90;;;;;;5053980;28;20029;-65
2023/03/19 07:26:22;;;;;;;5.22;1.90;;;14.20;99.90;;;;;;5054208;28;20049;-65
2023/03/19 07:28:47;;;;;;;4.35;1.95;;;13.70;99.90;;;;;;5054472;28;20033;-65
2023/03/19 07:31:13;;;;;;;4.78;1.70;;;13.40;99.90;;;;;;5054246;28;20051;-65
2023/03/19 07:33:39;;;;;;;4.72;1.85;;;13.20;99.90;;;;;;5054014;28;20028;-65
2023/03/19 07:36:06;;;;;;;6.00;1.80;;;13.20;99.90;;;;;;5052605;28;20029;-65
2023/03/19 07:38:31;;;;;;;6.25;1.77;;;13.30;99.90;;;;;;5054037;28;20413;-65
2023/03/19 07:40:57;;;;;;;4.72;1.65;;;13.20;99.90;;;;;;5053949;28;20044;-65
2023/03/19 07:43:23;;;;;;;6.97;1.70;;;13.80;99.90;;;;;;5053838;28;20021;-65
2023/03/19 07:45:48;;;;;;;4.68;2.10;;;13.80;99.90;;;;;;5053965;28;20025;-65
2023/03/19 07:48:15;;;;;;;5.30;1.90;;;13.50;99.90;;;;;;5054172;28;20112;-65
2023/03/19 07:50:41;;;;;;;4.38;1.38;;;13.70;99.90;;;;;;5053545;28;20057;-65
2023/03/19 07:53:06;;;;;;;4.45;1.90;;;13.50;99.90;;;;;;5053696;28;20418;-65
2023/03/19 07:55:32;;;;;;;5.18;1.70;;;13.60;99.90;;;;;;5053727;28;20397;-65
2023/03/19 07:57:58;;;;;;;3.45;1.30;;;13.70;99.90;;;;;;5053590;28;20057;-65
2023/03/19 08:00:24;;;;;;;3.65;1.45;;;14.00;99.90;;;;;;5054137;28;20116;-65
2023/03/19 08:02:50;;;;;;;5.18;1.92;;;14.10;99.90;;;;;;5053363;28;20442;-65
2023/03/19 08:05:16;;;;;;;5.57;1.60;;;14.90;99.90;;;;;;5053286;28;20029;-65
2023/03/19 08:07:41;;;;;;;4.28;1.38;;;15.20;99.90;;;;;;5053365;28;20045;-65
2023/03/19 08:10:08;;;;;;;4.28;1.30;;;15.30;99.90;;;;;;5053766;28;20060;-65
2023/03/19 08:12:39;;;;;;;3.97;1.42;;;15.50;99.90;;;;;;5053189;28;20057;-65
2023/03/19 08:15:06;;;;;;;5.13;1.60;;;15.50;99.90;;;;;;5053259;28;20025;-65
2023/03/19 08:17:37;;;;;;;4.30;1.70;;;15.30;99.90;;;;;;5053331;28;20450;-65
2023/03/19 08:20:15;;;;;;;4.40;1.30;;;15.30;99.90;;;;;;5053072;28;20397;-65
2023/03/19 08:22:42;;;;;;;4.75;1.40;;;14.90;99.90;;;;;;5053171;28;20086;-65
2023/03/19 08:25:09;;;;;;;3.78;1.70;;;14.80;99.90;;;;;;5053209;28;20032;-65
2023/03/19 08:27:35;;;;;;;6.40;1.48;;;16.00;99.90;;;;;;5053077;28;20048;-65
2023/03/19 08:30:06;;;;;;;3.60;1.50;;;20.40;99.90;;;;;;5052940;28;20060;-64
2023/03/19 08:32:31;;;;;;;3.33;1.30;;;20.50;99.90;;;;;;5052933;28;20528;-65
2023/03/19 08:34:57;;;;;;;6.22;1.63;;;19.00;99.90;;;;;;5052579;28;20028;-65
2023/03/19 08:37:23;;;;;;;4.55;1.27;;;18.50;99.90;;;;;;5052798;28;20051;-65
2023/03/19 08:39:52;;;;;;;5.60;1.42;;;17.50;99.90;;;;;;5053189;28;20037;-65
2023/03/19 08:42:18;;;;;;;2.65;0.98;;;16.50;99.90;;;;;;5052912;28;20074;-65
2023/03/19 08:44:44;;;;;;;2.80;0.90;;;15.40;99.90;;;;;;5052663;28;20021;-66
2023/03/19 08:47:11;;;;;;;3.90;1.20;;;15.20;99.90;;;;;;5052823;28;20087;-66
2023/03/19 08:49:36;;;;;;;2.75;1.10;;;14.90;99.90;;;;;;5052693;28;20024;-65
2023/03/19 08:52:03;;;;;;;3.30;1.13;;;15.00;99.90;;;;;;5052490;28;20034;-65
2023/03/19 08:54:29;;;;;;;4.45;1.30;;;17.30;99.90;;;;;;5052808;28;20021;-65
2023/03/19 08:56:54;;;;;;;1.75;1.23;;;19.00;99.90;;;;;;5052384;28;20104;-65
2023/03/19 08:59:20;;;;;;;1.75;1.20;;;22.10;99.90;;;;;;5052836;28;20025;-65
2023/03/19 09:01:50;;;;;;;2.97;2.00;;;24.60;99.90;;;;;;5052581;28;20375;-65
2023/03/19 09:04:16;;;;;;;4.30;2.38;;;23.00;99.90;;;;;;5052191;28;20367;-66
2023/03/19 09:06:42;;;;;;;3.70;2.30;;;21.00;99.90;;;;;;5052585;28;20040;-65
2023/03/19 09:09:08;;;;;;;4.13;2.70;;;20.70;99.90;;;;;;5052208;28;20493;-65
2023/03/19 09:11:34;;;;;;;3.40;2.80;;;20.40;99.90;;;;;;5052298;28;20096;-65
2023/03/19 09:14:00;;;;;;;3.72;2.45;;;19.00;99.90;;;;;;5052592;28;20051;-66
2023/03/19 09:16:25;;;;;;;2.72;2.00;;;18.30;99.90;;;;;;5052474;28;20395;-65
2023/03/19 09:18:51;;;;;;;2.25;1.80;;;17.70;99.90;;;;;;5051888;28;20031;-66
2023/03/19 09:21:17;;;;;;;1.63;1.52;;;17.30;99.90;;;;;;5051813;28;20048;-66
2023/03/19 09:23:42;;;;;;;2.65;1.65;;;22.90;99.90;;;;;;5052149;28;20481;-66
2023/03/19 09:26:08;;;;;;;1.58;1.27;;;28.50;99.90;;;;;;5052225;28;20039;-66
2023/03/19 09:28:35;;;;;;;1.70;1.23;;;30.60;99.90;;;;;;5051507;28;20036;-66
2023/03/19 09:31:05;;;;;;;1.35;1.00;;;33.20;99.90;;;;;;5052495;28;20079;-66
2023/03/19 09:33:31;;;;;;;1.80;0.90;;;30.50;99.90;;;;;;5051634;28;20060;-66
2023/03/19 09:35:57;;;;;;;3.25;1.10;;;29.10;99.90;;;;;;5051895;28;20060;-66
2023/03/19 09:38:23;;;;;;;1.65;0.90;;;29.40;99.90;;;;;;5051993;28;20043;-66
2023/03/19 09:41:26;;;;;;;3.35;1.25;;;25.00;99.90;;;;;;5051822;28;20047;-66
2023/03/19 09:44:00;;;;;;;3.42;1.33;;;21.10;99.90;;;;;;5052038;28;20385;-67
2023/03/19 09:46:49;;;;;;;3.22;1.45;;;19.00;99.90;;;;;;5051690;28;20028;-67
2023/03/19 09:49:23;;;;;;;1.92;1.08;;;18.80;99.90;;;;;;5051779;28;20074;-67
2023/03/19 09:52:00;;;;;;;2.60;1.30;;;18.80;99.90;;;;;;5051902;28;20037;-67
2023/03/19 09:54:33;;;;;;;2.92;1.20;;;18.10;99.90;;;;;;5051963;28;20052;-67
2023/03/19 09:57:00;;;;;;;;;;;19.10;99.90;;;;;;5052321;28;20108;-67
2023/03/19 09:59:27;;;;;;;3.10;1.10;;;19.80;99.90;;;;;;5051625;28;19911;-67
2023/03/19 10:02:16;;;;;;;2.35;1.15;;;23.50;99.90;;;;;;5051858;28;20382;-67
2023/03/19 10:04:57;;;;;;;1.77;0.80;;;25.00;99.90;;;;;;5047758;28;20146;-66
2023/03/19 10:07:46;;;;;;;1.48;0.85;;;28.80;99.90;;;;;;5051736;28;20486;-66
2023/03/19 10:10:12;;;;;;;3.00;0.88;;;25.60;99.90;;;;;;5048097;28;20039;-67
2023/03/19 10:13:01;;;;;;;2.28;0.65;;;22.90;99.90;;;;;;5051460;28;20049;-67
2023/03/19 10:15:30;;;;;;;2.03;0.70;;;21.60;99.90;;;;;;5051400;28;20056;-67
2023/03/19 10:18:05;;;;;;;1.58;0.75;;;19.40;99.90;;;;;;5051778;28;20025;-67
2023/03/19 10:21:07;;;;;;;2.80;0.80;;;17.80;99.90;;;;;;5051460;28;20095;-66
2023/03/19 10:23:42;;;;;;;1.40;0.60;;;18.30;99.90;;;;;;5010048;28;20046;-67
2023/03/19 10:26:19;;;;;;;2.47;0.80;;;19.20;99.90;;;;;;5009677;28;20038;-67
2023/03/19 10:28:56;;;;;;;1.90;0.70;;;19.00;99.90;;;;;;5009766;28;20057;-67
2023/03/19 10:31:45;;;;;;;1.08;0.60;;;19.30;99.90;;;;;;5009330;28;20030;-67
2023/03/19 10:34:30;;;;;;;1.90;0.80;;;20.60;99.90;;;;;;5009475;28;20037;-66
2023/03/19 10:37:33;;;;;;;1.35;0.80;;;20.80;99.90;;;;;;5009534;28;20152;-66
2023/03/19 10:39:59;;;;;;;1.75;0.60;;;21.60;99.90;;;;;;5010316;28;20034;-67
2023/03/19 10:42:52;;;;;;;1.17;0.60;;;20.70;99.90;;;;;;5013176;28;20112;-67
2023/03/19 10:45:32;;;;;;;1.67;0.80;;;20.80;99.90;;;;;;5012748;28;20037;-67
2023/03/19 10:48:00;;;;;;;1.00;0.60;;;20.80;99.90;;;;;;5013066;28;20442;-67
2023/03/19 10:50:40;;;;;;;1.45;0.60;;;20.80;99.90;;;;;;5013378;28;20057;-66
2023/03/19 10:53:12;;;;;;;1.25;0.70;;;21.60;99.90;;;;;;5013173;28;20560;-66
2023/03/19 10:55:43;;;;;;;2.20;0.68;;;19.90;99.90;;;;;;5013112;28;20418;-66
2023/03/19 10:58:17;;;;;;;1.15;0.70;;;19.50;99.90;;;;;;5029607;28;20034;-66
2023/03/19 11:00:48;;;;;;;2.08;0.90;;;18.00;99.90;;;;;;5034842;28;20036;-65
2023/03/19 11:03:31;;;;;;;3.15;0.90;;;19.50;99.90;;;;;;5033393;28;20022;-66
2023/03/19 11:06:19;;;;;;;1.50;0.70;;;18.80;99.90;;;;;;5034742;28;20033;-66
2023/03/19 11:09:07;;;;;;;3.08;0.93;;;18.00;99.90;;;;;;5034593;28;20429;-66
2023/03/19 11:11:50;;;;;;;2.25;0.77;;;17.70;99.90;;;;;;5034331;28;20549;-65
2023/03/19 11:14:24;;;;;;;1.85;0.90;;;18.80;99.90;;;;;;5034298;28;20489;-66
2023/03/19 11:17:01;;;;;;;;;;;18.80;99.90;;;;;;5035232;28;20021;-66
2023/03/19 11:19:29;;;;;;;1.52;0.60;;;18.90;99.90;;;;;;5036395;28;20341;-66
2023/03/19 11:22:06;;;;;;;2.85;0.77;;;18.60;99.90;;;;;;5054717;28;20055;-66
2023/03/19 11:24:35;;;;;;;2.33;0.80;;;17.40;99.90;;;;;;5054284;28;20025;-66
2023/03/19 11:27:02;;;;;;;0.88;0.70;;;18.30;99.90;;;;;;5054329;28;20382;-66
2023/03/19 11:29:28;;;;;;;1.38;0.60;;;18.70;99.90;;;;;;5054187;28;20105;-65
2023/03/19 11:32:09;;;;;;;1.65;0.60;;;19.10;99.90;;;;;;5054206;28;20025;-65
2023/03/19 11:34:47;;;;;;;1.85;0.73;;;19.80;99.90;;;;;;5053829;28;20477;-66
2023/03/19 11:37:56;;;;;;;0.77;0.70;;;19.40;99.90;;;;;;5054471;28;20079;-65
2023/03/19 11:40:41;;;;;;;1.33;0.68;;;18.10;99.90;;;;;;5054373;28;20033;-66
2023/03/19 11:43:55;;;;;;;0.82;0.60;;;17.40;99.90;;;;;;5053567;28;20021;-66
2023/03/19 11:46:38;;;;;;;0.77;0.60;;;17.90;99.90;;;;;;5044758;28;20036;-66
2023/03/19 11:49:20;;;;;;;1.20;0.70;;;17.70;99.90;;;;;;5053890;28;20032;-66
2023/03/19 11:51:55;;;;;;;2.03;0.77;;;17.70;99.90;;;;;;5053470;28;20029;-65
2023/03/19 11:54:26;;;;;;;1.42;1.00;;;18.70;99.90;;;;;;5054174;28;20546;-66
2023/03/19 11:57:00;;;;;;;1.42;0.82;;;19.50;99.90;;;;;;5053349;28;20482;-65
2023/03/19 11:59:55;;;;;;;1.63;0.70;;;18.30;99.90;;;;;;5053592;28;20036;-65
2023/03/19 12:02:42;;;;;;;1.20;0.70;;;17.40;99.90;;;;;;5031378;28;20120;-66
2023/03/19 12:05:29;;;;;;;1.70;0.70;;;17.20;99.90;;;;;;5031457;28;20493;-66
2023/03/19 12:08:04;;;;;;;0.73;0.60;;;16.90;99.90;;;;;;5031803;28;20068;-66
2023/03/19 12:10:54;;;;;;;2.33;0.77;;;17.50;99.90;;;;;;5031414;28;20053;-66
2023/03/19 12:13:48;;;;;;;1.42;0.80;;;17.20;99.90;;;;;;5030638;28;20048;-65
2023/03/19 12:16:32;;;;;;;1.88;0.60;;;16.70;99.90;;;;;;5031158;28;20502;-65
2023/03/19 12:19:40;;;;;;;1.73;0.70;;;16.30;99.90;;;;;;5031073;28;20075;-66
2023/03/19 12:22:14;;;;;;;2.00;0.60;;;16.50;99.90;;;;;;4933628;29;20059;-65
2023/03/19 12:24:58;;;;;;;2.33;0.85;;;16.90;99.90;;;;;;4933954;29;20465;-65
2023/03/19 12:27:42;;;;;;;1.05;0.60;;;17.40;99.90;;;;;;4933436;29;20378;-65
2023/03/19 12:30:08;;;;;;;2.53;0.70;;;17.90;99.90;;;;;;4933697;29;20106;-65
2023/03/19 12:32:58;;;;;;;1.80;0.65;;;17.70;99.90;;;;;;4933683;29;20462;-65
2023/03/19 12:35:34;;;;;;;2.85;0.90;;;16.90;99.90;;;;;;4933748;29;20504;-65
2023/03/19 12:38:16;;;;;;;0.77;0.60;;;18.20;99.90;;;;;;4933802;29;20564;-65
2023/03/19 12:40:57;;;;;;;1.67;0.70;;;18.40;99.90;;;;;;4952573;29;20121;-65
2023/03/19 12:43:30;;;;;;;0.88;0.50;;;17.70;99.90;;;;;;4952615;29;20023;-65
2023/03/19 12:46:06;;;;;;;1.33;0.73;;;17.60;99.90;;;;;;4952976;28;20529;-65
2023/03/19 12:48:42;;;;;;;1.58;0.60;;;18.40;99.90;;;;;;4952535;29;20035;-65
2023/03/19 12:51:12;;;;;;;0.85;0.60;;;18.70;99.90;;;;;;4952627;29;20122;-66
2023/03/19 12:54:13;;;;;;;1.38;0.50;;;17.80;99.90;;;;;;4952500;29;20596;-65
2023/03/19 12:56:43;;;;;;;2.72;0.60;;;18.90;99.90;;;;;;4951964;29;20416;-65